Time;durP1;ratioP1;P1;durP2;ratioP2;P2;SDS_P1;SDS_P2;PMS_P1;PMS_P2;Temp;Humidity;BMP_temperature;BMP_pressure;BME280_temperature;BME280_humidity;BME280_pressure;Samples;Min_cycle;Max_cycle;Signal;HPM_P1;HPM_P2
2022/08/19 00:01:21;;;;;;;22.55;16.95;;;;;18.10;100922.00;;;;12757591;23;20198;-78
2022/08/19 00:06:35;;;;;;;21.60;19.05;;;;;18.00;100918.00;;;;12687922;23;20700;-78
2022/08/19 00:11:50;;;;;;;24.83;21.80;;;;;18.00;100921.00;;;;12687830;23;20183;-78
2022/08/19 00:16:57;;;;;;;27.38;22.58;;;;;18.00;100929.00;;;;12666902;22;20186;-78
2022/08/19 00:22:05;;;;;;;31.08;24.95;;;;;18.00;100935.00;;;;12697456;22;20504;-78
2022/08/19 00:27:11;;;;;;;30.45;26.10;;;;;18.20;100930.00;;;;12694957;23;20184;-78
2022/08/19 00:32:27;;;;;;;35.40;28.48;;;;;18.30;100931.00;;;;12709752;23;20179;-77
2022/08/19 00:37:32;;;;;;;37.58;30.33;;;;;18.40;100931.00;;;;12684882;22;20179;-78
2022/08/19 00:42:34;;;;;;;35.63;29.55;;;;;18.40;100928.00;;;;12662665;23;20194;-78
2022/08/19 00:47:36;;;;;;;39.63;30.60;;;;;18.40;100930.00;;;;12683725;22;20199;-78
2022/08/19 00:52:45;;;;;;;48.03;34.88;;;;;18.40;100926.00;;;;12685569;23;20378;-78
2022/08/19 00:57:54;;;;;;;43.92;32.53;;;;;18.30;100924.00;;;;12710873;23;20900;-78
2022/08/19 01:02:56;;;;;;;50.80;38.20;;;;;18.20;100923.00;;;;12664082;23;20434;-77
2022/08/19 01:08:01;;;;;;;46.53;33.90;;;;;18.20;100925.00;;;;12687703;22;20179;-78
2022/08/19 01:13:04;;;;;;;52.38;38.38;;;;;18.10;100918.00;;;;12687859;22;20179;-78
2022/08/19 01:18:09;;;;;;;54.03;38.10;;;;;18.10;100922.00;;;;12708480;23;20183;-77
2022/08/19 01:23:12;;;;;;;55.35;37.90;;;;;17.90;100912.00;;;;12688505;23;20230;-77
2022/08/19 01:28:20;;;;;;;54.83;39.63;;;;;17.90;100924.00;;;;12687157;23;20172;-78
2022/08/19 01:33:40;;;;;;;65.18;41.88;;;;;17.80;100917.00;;;;12685173;23;20225;-77
2022/08/19 01:38:44;;;;;;;69.90;42.70;;;;;17.70;100907.00;;;;12684904;23;20201;-78
2022/08/19 01:43:46;;;;;;;64.63;41.72;;;;;17.70;100900.00;;;;12735965;23;20199;-78
2022/08/19 01:49:09;;;;;;;64.45;41.75;;;;;17.60;100912.00;;;;12665483;23;20464;-77
2022/08/19 01:54:13;;;;;;;61.35;40.83;;;;;17.60;100914.00;;;;12709676;23;20176;-77
2022/08/19 01:59:30;;;;;;;56.70;38.15;;;;;17.50;100922.00;;;;12709333;23;20492;-77
2022/08/19 02:04:31;;;;;;;55.95;36.40;;;;;17.40;100918.00;;;;12687289;23;20709;-78
2022/08/19 02:09:34;;;;;;;54.70;36.80;;;;;17.40;100923.00;;;;12686277;22;20182;-77
2022/08/19 02:14:37;;;;;;;53.23;35.00;;;;;17.30;100924.00;;;;12753626;23;20221;-77
2022/08/19 02:19:40;;;;;;;52.75;35.55;;;;;17.30;100920.00;;;;12708692;23;20187;-77
2022/08/19 02:24:42;;;;;;;51.42;33.90;;;;;17.40;100912.00;;;;12710117;23;20275;-78
2022/08/19 02:29:45;;;;;;;47.97;33.45;;;;;17.40;100911.00;;;;12684187;22;20558;-79
2022/08/19 02:34:47;;;;;;;44.13;33.03;;;;;17.40;100916.00;;;;12684369;22;20180;-78
2022/08/19 02:39:50;;;;;;;48.63;32.35;;;;;17.40;100929.00;;;;12662434;23;20180;-78
2022/08/19 02:44:52;;;;;;;43.78;31.58;;;;;17.30;100924.00;;;;12685429;23;20203;-78
2022/08/19 02:49:54;;;;;;;37.85;28.33;;;;;17.30;100917.00;;;;12683269;23;20588;-78
2022/08/19 02:54:57;;;;;;;38.65;27.00;;;;;17.20;100907.00;;;;12684178;22;20176;-79
2022/08/19 02:59:59;;;;;;;36.88;26.55;;;;;17.10;100910.00;;;;12685661;22;21076;-78
2022/08/19 03:05:03;;;;;;;34.35;24.02;;;;;17.00;100916.00;;;;12684874;22;20200;-78
2022/08/19 03:10:05;;;;;;;33.03;24.52;;;;;17.00;100915.00;;;;12710352;23;20201;-78
2022/08/19 03:15:08;;;;;;;32.83;24.75;;;;;16.90;100917.00;;;;12685589;23;20184;-78
2022/08/19 03:20:10;;;;;;;31.63;22.70;;;;;16.90;100916.00;;;;12686915;23;20178;-78
2022/08/19 03:25:15;;;;;;;33.78;25.00;;;;;16.90;100922.00;;;;12661523;22;20199;-78
2022/08/19 03:30:17;;;;;;;31.55;25.00;;;;;17.00;100915.00;;;;12711708;23;20164;-78
2022/08/19 03:35:24;;;;;;;36.33;23.55;;;;;17.00;100898.00;;;;12710631;23;20180;-78
2022/08/19 03:40:26;;;;;;;31.07;23.00;;;;;16.90;100899.00;;;;12687512;22;20244;-77
2022/08/19 03:45:29;;;;;;;30.05;21.45;;;;;16.90;100902.00;;;;12685140;22;20204;-77
2022/08/19 03:50:31;;;;;;;34.58;20.98;;;;;16.90;100905.00;;;;12684904;22;20192;-77
2022/08/19 03:55:32;;;;;;;31.95;21.58;;;;;16.80;100901.00;;;;12686708;23;20183;-78
2022/08/19 04:00:35;;;;;;;29.27;21.13;;;;;16.80;100911.00;;;;12663520;23;20701;-79
2022/08/19 04:05:37;;;;;;;29.13;22.02;;;;;16.80;100913.00;;;;12686178;23;20203;-78
2022/08/19 04:10:40;;;;;;;32.37;22.40;;;;;16.80;100913.00;;;;12708454;23;20737;-79
2022/08/19 04:15:46;;;;;;;36.78;21.70;;;;;16.80;100925.00;;;;12709511;23;20250;-78
2022/08/19 04:20:48;;;;;;;30.92;21.35;;;;;16.80;100907.00;;;;12687033;22;20183;-78
2022/08/19 04:25:50;;;;;;;34.87;20.50;;;;;16.80;100908.00;;;;12684525;23;20199;-78
2022/08/19 04:30:54;;;;;;;26.23;18.75;;;;;16.80;100916.00;;;;12685858;22;20171;-78
2022/08/19 04:35:58;;;;;;;26.33;18.60;;;;;16.80;100914.00;;;;12683879;22;20207;-78
2022/08/19 04:46:22;;;;;;;29.20;19.75;;;;;16.60;100913.00;;;;12685601;22;20210;-78
2022/08/19 04:51:43;;;;;;;30.77;20.25;;;;;16.60;100911.00;;;;12714212;23;20171;-78
2022/08/19 04:56:45;;;;;;;27.30;20.03;;;;;16.60;100918.00;;;;12688972;22;20595;-78
2022/08/19 05:01:49;;;;;;;28.63;18.73;;;;;16.60;100919.00;;;;12683260;23;20176;-79
2022/08/19 05:06:53;;;;;;;29.10;17.80;;;;;16.60;100939.00;;;;12702709;23;20249;-78
2022/08/19 05:12:02;;;;;;;25.47;17.27;;;;;16.70;100939.00;;;;12680610;22;20179;-79
2022/08/19 05:17:04;;;;;;;30.10;17.53;;;;;16.80;100937.00;;;;12680233;23;20195;-80
2022/08/19 05:22:34;;;;;;;24.45;16.35;;;;;17.00;100932.00;;;;12705665;23;20159;-79
2022/08/19 05:27:36;;;;;;;21.67;14.60;;;;;17.20;100939.00;;;;12725420;23;20233;-79
2022/08/19 05:32:40;;;;;;;29.45;14.32;;;;;17.40;100942.00;;;;12725341;23;20213;-79
2022/08/19 05:37:42;;;;;;;25.05;13.18;;;;;17.90;100938.00;;;;12682280;23;20180;-79
2022/08/19 05:42:43;;;;;;;17.08;11.80;;;;;18.00;100940.00;;;;12687721;22;20195;-80
2022/08/19 05:47:56;;;;;;;17.05;10.90;;;;;18.20;100927.00;;;;12686825;22;20202;-79
2022/08/19 05:52:58;;;;;;;20.30;10.80;;;;;18.70;100932.00;;;;12659978;23;20673;-78
2022/08/19 05:58:01;;;;;;;14.13;9.45;;;;;19.10;100940.00;;;;12710753;22;20176;-78
2022/08/19 06:03:04;;;;;;;10.95;8.68;;;;;19.40;100928.00;;;;12709197;23;20218;-80
2022/08/19 06:08:13;;;;;;;15.27;8.88;;;;;19.70;100937.00;;;;12662308;23;20179;-77
2022/08/19 06:13:15;;;;;;;18.63;9.45;;;;;20.00;100943.00;;;;12680567;23;20233;-79
2022/08/19 06:18:17;;;;;;;16.08;9.45;;;;;20.30;100938.00;;;;12706040;23;20172;-77
2022/08/19 06:23:19;;;;;;;14.60;9.85;;;;;20.60;100935.00;;;;12703416;23;20191;-78
2022/08/19 06:28:25;;;;;;;15.38;9.18;;;;;20.80;100941.00;;;;12705435;23;20324;-77
2022/08/19 06:33:27;;;;;;;13.68;9.52;;;;;21.00;100947.00;;;;12705637;23;20245;-77
2022/08/19 06:38:33;;;;;;;14.13;8.40;;;;;21.20;100937.00;;;;12707722;23;20239;-78
2022/08/19 06:43:35;;;;;;;22.70;9.15;;;;;21.40;100939.00;;;;12706730;23;20199;-77
2022/08/19 06:48:43;;;;;;;13.10;8.73;;;;;21.70;100938.00;;;;12706528;23;20194;-77
2022/08/19 06:53:49;;;;;;;10.73;7.55;;;;;21.80;100957.00;;;;12702768;23;20282;-77
2022/08/19 06:58:56;;;;;;;12.95;8.13;;;;;21.80;100944.00;;;;12681107;23;20479;-79
2022/08/19 07:03:58;;;;;;;13.60;7.68;;;;;22.00;100942.00;;;;12658180;22;20282;-77
2022/08/19 07:09:00;;;;;;;11.55;7.55;;;;;22.30;100954.00;;;;12681517;22;20210;-79
2022/08/19 07:14:05;;;;;;;10.05;6.90;;;;;22.30;100961.00;;;;12726839;23;20556;-77
2022/08/19 07:19:07;;;;;;;14.02;6.53;;;;;22.20;100969.00;;;;12698777;23;20176;-77
2022/08/19 07:24:17;;;;;;;13.88;7.55;;;;;22.30;100977.00;;;;12694799;23;20202;-76
2022/08/19 07:29:22;;;;;;;12.10;7.97;;;;;21.60;100979.00;;;;12716527;23;20183;-76
2022/08/19 07:34:30;;;;;;;14.95;7.53;;;;;21.90;100980.00;;;;12666614;22;20237;-76
2022/08/19 07:39:35;;;;;;;14.77;7.15;;;;;22.30;100971.00;;;;12693295;23;20633;-78
2022/08/19 07:44:37;;;;;;;9.68;5.88;;;;;23.50;100973.00;;;;12708576;23;20287;-77
2022/08/19 07:49:42;;;;;;;14.48;5.78;;;;;23.10;100971.00;;;;12686828;23;20199;-77
2022/08/19 07:54:44;;;;;;;9.13;6.35;;;;;23.90;100965.00;;;;12683924;22;20272;-76
2022/08/19 07:59:46;;;;;;;8.10;5.25;;;;;23.40;100970.00;;;;12748771;23;20194;-77
2022/08/19 08:10:09;;;;;;;8.23;4.97;;;;;24.10;100971.00;;;;12700105;23;20246;-78
2022/08/19 08:15:22;;;;;;;6.28;4.68;;;;;24.50;100977.00;;;;12706752;23;20172;-78
2022/08/19 08:20:26;;;;;;;8.25;4.63;;;;;24.30;100985.00;;;;12705813;23;20761;-77
2022/08/19 08:25:29;;;;;;;5.45;3.83;;;;;23.90;100982.00;;;;12678765;22;20208;-78
2022/08/19 08:30:36;;;;;;;7.45;4.80;;;;;24.60;100991.00;;;;12707358;23;20206;-77
2022/08/19 08:35:41;;;;;;;6.82;4.10;;;;;25.50;100987.00;;;;12674583;23;20176;-77
2022/08/19 08:40:56;;;;;;;7.35;4.72;;;;;24.90;101004.00;;;;12675421;22;20231;-76
2022/08/19 08:46:17;;;;;;;7.70;4.70;;;;;24.30;101012.00;;;;12740467;23;20271;-76
2022/08/19 08:51:38;;;;;;;9.43;4.65;;;;;23.80;101006.00;;;;12687652;23;20253;-76
2022/08/19 08:56:47;;;;;;;5.80;4.38;;;;;23.60;101016.00;;;;12641099;23;20176;-76
2022/08/19 09:01:52;;;;;;;8.77;4.88;;;;;23.60;101010.00;;;;12693915;23;20176;-77
2022/08/19 09:07:08;;;;;;;8.60;4.60;;;;;23.70;101012.00;;;;12694568;23;20543;-77
2022/08/19 09:12:38;;;;;;;11.85;4.85;;;;;24.00;101008.00;;;;12690565;23;20175;-76
2022/08/19 09:17:44;;;;;;;11.07;5.55;;;;;24.70;101016.00;;;;12696517;23;20210;-78
2022/08/19 09:22:51;;;;;;;9.20;5.88;;;;;24.90;101009.00;;;;12733707;23;20173;-78
2022/08/19 09:27:56;;;;;;;9.25;4.75;;;;;24.90;101015.00;;;;12689430;22;20199;-79
2022/08/19 09:33:04;;;;;;;7.88;5.53;;;;;25.00;101018.00;;;;12682643;23;20224;-76
2022/08/19 09:38:06;;;;;;;7.90;5.47;;;;;24.60;101023.00;;;;12688957;23;20225;-77
2022/08/19 09:43:11;;;;;;;6.93;5.50;;;;;24.60;101016.00;;;;12700626;23;20171;-78
2022/08/19 09:48:14;;;;;;;8.68;5.00;;;;;24.60;101024.00;;;;12706074;23;20632;-77
2022/08/19 09:53:24;;;;;;;13.50;6.88;;;;;24.40;101026.00;;;;12677343;22;20184;-78
2022/08/19 09:58:27;;;;;;;10.93;5.45;;;;;24.50;101023.00;;;;12707683;23;20666;-79
2022/08/19 10:03:31;;;;;;;10.30;6.07;;;;;24.80;101021.00;;;;12705238;23;20221;-78
2022/08/19 10:08:36;;;;;;;9.68;4.22;;;;;25.20;101011.00;;;;12698597;23;20266;-77
2022/08/19 10:13:39;;;;;;;6.70;4.72;;;;;25.50;101015.00;;;;12670410;23;20745;-76
2022/08/19 10:18:43;;;;;;;8.20;4.70;;;;;25.60;101014.00;;;;12690471;23;20271;-77
2022/08/19 10:23:55;;;;;;;7.97;4.55;;;;;26.20;101015.00;;;;12700565;23;20207;-80
2022/08/19 10:28:57;;;;;;;10.25;5.22;;;;;26.90;101009.00;;;;12709764;23;20191;-78
2022/08/19 10:34:00;;;;;;;6.55;4.45;;;;;26.70;100995.00;;;;12712251;23;20233;-78
2022/08/19 10:39:07;;;;;;;5.32;3.70;;;;;27.30;100999.00;;;;12689464;23;20258;-78
2022/08/19 10:44:12;;;;;;;5.35;3.70;;;;;28.00;100989.00;;;;12728806;23;20910;-78
2022/08/19 10:49:14;;;;;;;5.20;3.63;;;;;28.30;100992.00;;;;12685764;23;20212;-78
2022/08/19 10:54:18;;;;;;;5.15;3.90;;;;;28.30;100985.00;;;;12712379;23;20207;-77
2022/08/19 10:59:32;;;;;;;4.75;3.65;;;;;28.00;100997.00;;;;12715136;23;20179;-78
2022/08/19 11:04:39;;;;;;;4.60;3.30;;;;;27.80;100990.00;;;;12720321;23;20279;-77
2022/08/19 11:09:42;;;;;;;5.32;3.50;;;;;27.90;100988.00;;;;12712351;23;20175;-78
2022/08/19 11:14:44;;;;;;;4.53;3.67;;;;;27.70;101001.00;;;;12687580;22;20175;-78
2022/08/19 11:19:48;;;;;;;6.47;4.45;;;;;27.30;101001.00;;;;12732703;23;20244;-78
2022/08/19 11:24:50;;;;;;;6.60;4.47;;;;;26.90;101010.00;;;;12705858;23;20673;-78
2022/08/19 11:29:52;;;;;;;7.90;4.25;;;;;27.40;101006.00;;;;12683931;23;20176;-77
2022/08/19 11:34:54;;;;;;;7.40;4.93;;;;;26.60;101010.00;;;;12664725;23;20180;-77
2022/08/19 11:39:56;;;;;;;4.78;3.95;;;;;25.70;101005.00;;;;12755078;23;20220;-77
2022/08/19 11:44:58;;;;;;;3.25;2.90;;;;;26.50;101001.00;;;;12709914;23;20245;-77
2022/08/19 11:50:00;;;;;;;4.50;4.07;;;;;27.40;101000.00;;;;12729464;23;20187;-77
2022/08/19 11:55:03;;;;;;;5.15;3.50;;;;;27.10;101010.00;;;;12671036;22;20175;-77
2022/08/19 12:00:07;;;;;;;4.85;3.78;;;;;27.30;101004.00;;;;12673647;22;20182;-77
2022/08/19 12:05:09;;;;;;;4.95;4.32;;;;;27.40;100998.00;;;;12671934;23;20714;-77
2022/08/19 12:10:14;;;;;;;5.25;4.60;;;;;27.30;100999.00;;;;12672552;23;20186;-77
2022/08/19 12:15:20;;;;;;;5.68;5.15;;;;;27.50;101000.00;;;;12674881;23;20179;-77
2022/08/19 12:20:23;;;;;;;8.95;5.95;;;;;28.90;100998.00;;;;12673350;23;20680;-77
2022/08/19 12:25:25;;;;;;;6.68;5.80;;;;;29.90;100993.00;;;;12698070;23;20269;-78
2022/08/19 12:30:27;;;;;;;6.75;6.15;;;;;30.80;100996.00;;;;12705687;23;20191;-77
2022/08/19 12:35:30;;;;;;;6.38;5.82;;;;;30.70;100996.00;;;;12683053;23;20180;-78
2022/08/19 12:40:32;;;;;;;6.72;5.82;;;;;30.10;100991.00;;;;12708241;23;20167;-77
2022/08/19 12:45:34;;;;;;;5.95;5.45;;;;;30.30;100984.00;;;;12704202;23;20192;-77
2022/08/19 12:50:45;;;;;;;7.00;4.63;;;;;30.60;100975.00;;;;12706510;23;20196;-77
2022/08/19 12:55:47;;;;;;;6.38;4.72;;;;;30.50;100970.00;;;;12702830;23;20519;-77
2022/08/19 13:00:52;;;;;;;4.32;3.88;;;;;31.40;100955.00;;;;12687952;22;20183;-77
2022/08/19 13:06:29;;;;;;;5.88;3.67;;;;;30.20;100962.00;;;;12711771;23;20263;-77
2022/08/19 13:11:34;;;;;;;4.22;3.83;;;;;30.10;100948.00;;;;12705089;23;20184;-77
2022/08/19 13:16:37;;;;;;;3.22;2.92;;;;;29.60;100944.00;;;;12709139;23;20684;-77
2022/08/19 13:21:39;;;;;;;3.65;2.80;;;;;30.00;100944.00;;;;12707493;23;20176;-78
2022/08/19 13:26:44;;;;;;;3.10;2.78;;;;;29.10;100941.00;;;;12723927;23;20199;-77
2022/08/19 13:37:07;;;;;;;2.88;2.55;;;;;29.80;100921.00;;;;12707202;23;20755;-78
2022/08/19 13:42:10;;;;;;;2.28;2.08;;;;;32.70;100909.00;;;;12683269;23;20647;-77
2022/08/19 13:47:14;;;;;;;2.72;2.05;;;;;34.80;100917.00;;;;12713223;23;20498;-78
2022/08/19 13:52:16;;;;;;;6.05;2.13;;;;;35.20;100919.00;;;;12666700;23;20183;-78
2022/08/19 13:57:18;;;;;;;1.73;1.63;;;;;35.60;100906.00;;;;12684951;22;20187;-77
2022/08/19 14:02:20;;;;;;;4.75;2.47;;;;;33.30;100922.00;;;;12687536;23;20188;-77
2022/08/19 14:07:23;;;;;;;4.47;1.77;;;;;31.80;100901.00;;;;12689327;23;20659;-78
2022/08/19 14:12:25;;;;;;;2.38;1.30;;;;;35.60;100918.00;;;;12713036;23;20198;-77
2022/08/19 14:17:29;;;;;;;3.63;1.70;;;;;31.70;100918.00;;;;12687329;23;20193;-77
2022/08/19 14:22:32;;;;;;;2.50;1.70;;;;;29.90;100919.00;;;;12682448;22;20179;-77
2022/08/19 14:27:35;;;;;;;2.70;1.80;;;;;29.30;100907.00;;;;12684223;22;20202;-77
2022/08/19 14:32:37;;;;;;;2.80;1.75;;;;;28.10;100919.00;;;;12682810;22;20171;-77
2022/08/19 14:37:40;;;;;;;3.65;2.08;;;;;26.90;100940.00;;;;12704755;23;20175;-78
2022/08/19 14:43:03;;;;;;;6.20;2.35;;;;;26.30;100944.00;;;;12691699;23;20266;-77
2022/08/19 14:48:07;;;;;;;4.07;2.55;;;;;26.10;100938.00;;;;12688800;23;20203;-76
2022/08/19 14:53:20;;;;;;;4.75;2.28;;;;;26.00;100942.00;;;;12668251;22;20186;-76
2022/08/19 14:58:22;;;;;;;4.68;2.00;;;;;27.00;100945.00;;;;12666113;23;20830;-76
2022/08/19 15:03:31;;;;;;;2.33;1.58;;;;;27.50;100950.00;;;;12690163;23;20176;-76
2022/08/19 15:08:36;;;;;;;3.78;1.30;;;;;27.50;100944.00;;;;12738955;23;20195;-77
2022/08/19 15:13:39;;;;;;;2.70;1.40;;;;;27.70;100953.00;;;;12695057;23;20274;-77
2022/08/19 15:18:44;;;;;;;2.05;1.27;;;;;27.80;100959.00;;;;12666683;23;20549;-76
2022/08/19 15:23:49;;;;;;;1.48;0.98;;;;;28.30;100960.00;;;;12690714;23;20176;-77
2022/08/19 15:28:51;;;;;;;1.02;0.57;;;;;28.20;100960.00;;;;12695389;23;20176;-76
2022/08/19 15:33:58;;;;;;;0.60;0.60;;;;;27.60;100968.00;;;;12672095;23;20176;-77
2022/08/19 15:39:00;;;;;;;2.13;0.70;;;;;27.70;100966.00;;;;12665482;23;20194;-77
2022/08/19 15:44:08;;;;;;;1.98;0.70;;;;;28.30;100962.00;;;;12696902;23;20682;-76
2022/08/19 15:49:13;;;;;;;3.03;0.85;;;;;27.10;100968.00;;;;12737820;23;20187;-77
2022/08/19 15:54:20;;;;;;;1.58;0.75;;;;;25.90;100969.00;;;;12637726;23;20194;-77
2022/08/19 16:10:10;;;;;;;2.65;1.08;;;;;24.30;100984.00;;;;12696395;23;20179;-77
2022/08/19 16:15:29;;;;;;;0.95;0.90;;;;;24.10;100972.00;;;;12721188;23;20170;-77
2022/08/19 16:20:31;;;;;;;1.90;1.30;;;;;24.10;100977.00;;;;12720830;23;20168;-77
2022/08/19 16:25:36;;;;;;;2.00;1.17;;;;;24.20;100981.00;;;;12701296;23;20286;-76
2022/08/19 16:30:39;;;;;;;2.10;1.40;;;;;24.30;100976.00;;;;12721470;23;20194;-77
2022/08/19 16:35:41;;;;;;;1.20;1.10;;;;;23.90;100964.00;;;;12746969;23;20168;-76
2022/08/19 16:40:43;;;;;;;5.53;1.95;;;;;23.80;100970.00;;;;12739093;23;20159;-80
2022/08/19 16:45:51;;;;;;;2.83;1.80;;;;;23.90;100964.00;;;;12695875;23;20274;-80
2022/08/19 16:50:53;;;;;;;2.80;1.90;;;;;24.30;100971.00;;;;12722728;23;20192;-79
2022/08/19 16:56:01;;;;;;;5.22;2.42;;;;;24.50;100963.00;;;;12725213;23;20164;-79
2022/08/19 17:01:05;;;;;;;2.55;2.20;;;;;24.40;100967.00;;;;12701370;23;20185;-80
2022/08/19 17:06:16;;;;;;;3.92;1.75;;;;;24.10;100968.00;;;;12829348;23;20263;-79
2022/08/19 17:11:23;;;;;;;2.53;1.70;;;;;23.80;100989.00;;;;12701307;23;20187;-80
2022/08/19 17:16:27;;;;;;;3.10;2.00;;;;;23.60;100985.00;;;;12699784;23;20570;-79
2022/08/19 17:21:31;;;;;;;3.42;1.52;;;;;23.50;100984.00;;;;12721511;23;20176;-79
2022/08/19 17:26:37;;;;;;;2.70;1.42;;;;;23.50;100984.00;;;;12744637;23;20251;-79
2022/08/19 17:31:46;;;;;;;2.15;1.50;;;;;23.30;100973.00;;;;12699783;23;20182;-79
2022/08/19 17:36:48;;;;;;;2.65;1.60;;;;;23.00;100976.00;;;;12726998;23;20168;-78
2022/08/19 17:41:50;;;;;;;2.25;1.48;;;;;22.80;100972.00;;;;12677692;23;20235;-78
2022/08/19 17:46:52;;;;;;;3.00;1.65;;;;;22.70;100981.00;;;;12701259;23;20282;-78
2022/08/19 17:51:55;;;;;;;2.05;1.45;;;;;22.50;100984.00;;;;12705852;23;20226;-78
2022/08/19 17:56:58;;;;;;;3.17;2.15;;;;;22.40;100988.00;;;;12702961;23;20168;-80
2022/08/19 18:02:00;;;;;;;4.63;2.00;;;;;22.40;100990.00;;;;12726382;23;20231;-78
2022/08/19 18:07:03;;;;;;;3.50;2.28;;;;;22.40;100982.00;;;;12701205;23;20222;-79
2022/08/19 18:12:06;;;;;;;5.25;2.20;;;;;22.20;101001.00;;;;12711819;23;20163;-80
2022/08/19 18:17:12;;;;;;;6.28;2.78;;;;;22.00;100996.00;;;;12692299;23;20227;-79
2022/08/19 18:22:45;;;;;;;6.18;3.50;;;;;21.70;101003.00;;;;12686104;23;20171;-81
2022/08/19 18:27:53;;;;;;;8.32;4.22;;;;;21.20;101014.00;;;;12703273;23;20199;-77
2022/08/19 18:32:59;;;;;;;6.38;4.15;;;;;20.80;101012.00;;;;12726978;23;20167;-77
2022/08/19 18:49:03;;;;;;;8.00;4.45;;;;;20.60;101025.00;;;;12674608;22;20182;-78
2022/08/19 18:53:50;;;;;;;9.38;5.05;;;;;20.40;101035.00;;;;12695201;23;20258;-78
2022/08/19 18:58:52;;;;;;;8.38;5.25;;;;;20.40;101040.00;;;;12694112;23;20183;-79
2022/08/19 19:03:54;;;;;;;8.57;5.45;;;;;20.40;101041.00;;;;12737527;23;20259;-79
2022/08/19 19:08:58;;;;;;;13.00;6.25;;;;;20.40;101039.00;;;;12696066;22;20203;-79
2022/08/19 19:14:11;;;;;;;10.88;6.60;;;;;20.40;101038.00;;;;12694684;23;20183;-79
2022/08/19 19:19:33;;;;;;;10.95;5.63;;;;;20.30;101031.00;;;;12689398;23;20174;-79
2022/08/19 19:24:37;;;;;;;9.75;5.30;;;;;20.30;101040.00;;;;12715568;23;20385;-79
2022/08/19 19:29:40;;;;;;;12.35;5.97;;;;;20.30;101044.00;;;;12652323;23;20186;-79
2022/08/19 19:34:44;;;;;;;11.73;6.20;;;;;20.30;101037.00;;;;12712778;23;20172;-80
2022/08/19 19:39:46;;;;;;;6.15;4.95;;;;;20.30;101048.00;;;;12695598;23;20226;-80
2022/08/19 19:44:54;;;;;;;8.13;4.70;;;;;20.20;101052.00;;;;12736849;23;20190;-80
2022/08/19 19:49:56;;;;;;;4.20;3.80;;;;;20.10;101057.00;;;;12695262;23;20570;-80
2022/08/19 19:55:18;;;;;;;4.97;3.40;;;;;19.90;101059.00;;;;12696962;22;20176;-80
2022/08/19 20:00:21;;;;;;;9.20;3.83;;;;;19.80;101061.00;;;;12695008;23;20176;-80
2022/08/19 20:05:23;;;;;;;6.47;3.58;;;;;19.70;101068.00;;;;12738940;23;20650;-81
2022/08/19 20:10:25;;;;;;;6.50;3.35;;;;;19.70;101061.00;;;;12711670;23;20514;-81
2022/08/19 20:15:28;;;;;;;9.88;4.00;;;;;19.60;101071.00;;;;12774878;23;20183;-81
2022/08/19 20:20:30;;;;;;;6.85;3.63;;;;;19.70;101075.00;;;;12689535;23;20180;-80
2022/08/19 20:25:33;;;;;;;9.32;3.50;;;;;19.70;101069.00;;;;12699311;22;20682;-81
2022/08/19 20:30:35;;;;;;;9.50;3.10;;;;;19.60;101067.00;;;;12670698;22;20227;-80
2022/08/19 20:35:42;;;;;;;7.65;3.58;;;;;19.60;101065.00;;;;12697629;23;20180;-81
2022/08/19 20:40:44;;;;;;;7.55;3.20;;;;;19.50;101065.00;;;;12695729;23;20622;-80
2022/08/19 20:45:46;;;;;;;4.38;2.90;;;;;19.50;101061.00;;;;12696247;23;20255;-80
2022/08/19 20:50:48;;;;;;;8.15;3.30;;;;;19.40;101067.00;;;;12671386;22;20600;-82
2022/08/19 20:55:50;;;;;;;3.58;2.00;;;;;19.40;101071.00;;;;12693606;23;20222;-81
2022/08/19 21:00:56;;;;;;;3.20;1.92;;;;;19.20;101067.00;;;;12690783;23;20196;-80
2022/08/19 21:05:59;;;;;;;2.65;1.73;;;;;19.10;101065.00;;;;12695271;23;20200;-80
2022/08/19 21:11:01;;;;;;;3.10;2.17;;;;;19.00;101071.00;;;;12693568;23;20276;-80
2022/08/19 21:16:07;;;;;;;4.55;2.40;;;;;19.00;101062.00;;;;12696956;23;20178;-80
2022/08/19 21:21:10;;;;;;;6.88;2.85;;;;;19.00;101069.00;;;;12670295;23;20266;-81
2022/08/19 21:26:12;;;;;;;11.20;3.60;;;;;19.00;101070.00;;;;12697575;23;20233;-80
2022/08/19 21:31:15;;;;;;;8.80;4.10;;;;;19.10;101069.00;;;;12695372;23;20183;-81
2022/08/19 21:36:17;;;;;;;5.60;3.83;;;;;19.10;101074.00;;;;12694374;23;20210;-81
2022/08/19 21:41:19;;;;;;;8.48;4.13;;;;;19.10;101074.00;;;;12714895;23;20707;-80
2022/08/19 21:46:21;;;;;;;9.73;4.20;;;;;19.20;101072.00;;;;12697612;23;20268;-81
2022/08/19 21:51:23;;;;;;;5.32;4.13;;;;;19.20;101075.00;;;;12675124;22;20190;-81
2022/08/19 21:56:26;;;;;;;7.65;4.95;;;;;19.20;101076.00;;;;12694424;23;20676;-81
2022/08/19 22:01:29;;;;;;;6.55;4.93;;;;;19.20;101076.00;;;;12717834;23;20200;-80
2022/08/19 22:06:31;;;;;;;10.40;5.28;;;;;19.20;101076.00;;;;12696637;23;20199;-81
2022/08/19 22:11:34;;;;;;;10.30;4.82;;;;;19.20;101069.00;;;;12741014;23;20501;-81
2022/08/19 22:16:37;;;;;;;13.82;5.45;;;;;19.10;101075.00;;;;12701603;23;20176;-81
2022/08/19 22:21:39;;;;;;;8.45;4.90;;;;;19.10;101079.00;;;;12706712;23;20685;-81
2022/08/19 22:26:42;;;;;;;7.75;5.05;;;;;19.00;101075.00;;;;12710014;23;20203;-81
2022/08/19 22:31:44;;;;;;;10.80;5.50;;;;;19.00;101079.00;;;;12724326;23;20183;-81
2022/08/19 22:36:56;;;;;;;8.27;5.60;;;;;19.00;101083.00;;;;12701459;23;20179;-82
2022/08/19 22:41:58;;;;;;;11.25;5.82;;;;;18.90;101088.00;;;;12706226;23;20180;-82
2022/08/19 22:47:01;;;;;;;8.98;5.55;;;;;18.90;101094.00;;;;12675664;22;20203;-82
2022/08/19 22:52:18;;;;;;;12.77;5.75;;;;;18.90;101085.00;;;;12679650;22;20266;-81
2022/08/19 22:57:21;;;;;;;10.52;5.85;;;;;18.80;101081.00;;;;12680332;22;20202;-81
2022/08/19 23:02:28;;;;;;;9.18;7.00;;;;;18.80;101086.00;;;;12653955;23;20172;-82
2022/08/19 23:07:30;;;;;;;10.13;6.70;;;;;18.70;101088.00;;;;12703058;23;20226;-82
2022/08/19 23:12:39;;;;;;;12.23;7.65;;;;;18.70;101081.00;;;;12677584;22;20171;-82
2022/08/19 23:17:42;;;;;;;10.18;7.20;;;;;18.70;101085.00;;;;12747939;23;20167;-81
2022/08/19 23:22:48;;;;;;;11.77;8.63;;;;;18.60;101088.00;;;;12676319;23;20635;-82
2022/08/19 23:33:27;;;;;;;15.27;9.13;;;;;18.20;101092.00;;;;12675874;22;20180;-82
2022/08/19 23:38:51;;;;;;;14.57;10.35;;;;;18.00;101093.00;;;;12698735;23;20190;-82
2022/08/19 23:43:53;;;;;;;11.30;9.13;;;;;17.90;101087.00;;;;12695630;23;20183;-82
2022/08/19 23:48:56;;;;;;;18.05;8.45;;;;;17.70;101085.00;;;;12674303;22;20253;-82
2022/08/19 23:53:58;;;;;;;13.60;10.20;;;;;17.70;101089.00;;;;12675180;23;20180;-82
2022/08/19 23:59:00;;;;;;;16.50;10.77;;;;;17.60;101095.00;;;;12671599;22;20183;-81
